createdAt,value
2018-11-04T00:00:50.270Z,23.63
2018-11-04T00:01:51.297Z,23.40
2018-11-04T00:02:50.323Z,23.46
2018-11-04T00:03:50.320Z,23.33
2018-11-04T00:04:50.333Z,23.33
2018-11-04T00:05:50.351Z,23.36
2018-11-04T00:06:50.370Z,23.41
2018-11-04T00:07:51.428Z,23.46
2018-11-04T00:08:50.399Z,23.58
2018-11-04T00:09:50.422Z,23.61
2018-11-04T00:10:50.466Z,23.71
2018-11-04T00:11:50.451Z,23.68
2018-11-04T00:12:50.467Z,23.71
2018-11-04T00:13:51.506Z,23.73
2018-11-04T00:14:50.558Z,23.80
2018-11-04T00:15:50.516Z,23.74
2018-11-04T00:16:50.537Z,23.77
2018-11-04T00:17:50.557Z,23.74
2018-11-04T00:18:50.584Z,23.78
2018-11-04T00:19:51.595Z,23.81
2018-11-04T00:20:50.619Z,23.88
2018-11-04T00:21:50.673Z,23.88
2018-11-04T00:22:50.637Z,23.89
2018-11-04T00:23:50.663Z,23.86
2018-11-04T00:24:50.664Z,23.83
2018-11-04T00:25:51.692Z,23.89
2018-11-04T00:26:50.757Z,23.88
2018-11-04T00:27:50.713Z,23.77
2018-11-04T00:28:50.730Z,23.74
2018-11-04T00:29:50.793Z,23.73
2018-11-04T00:30:50.796Z,23.81
2018-11-04T00:31:51.832Z,23.80
2018-11-04T00:32:50.803Z,23.80
2018-11-04T00:33:50.820Z,23.80
2018-11-04T00:34:50.839Z,23.74
2018-11-04T00:35:50.857Z,23.74
2018-11-04T00:36:50.872Z,23.73
2018-11-04T00:37:51.895Z,23.74
2018-11-04T00:38:50.894Z,23.78
2018-11-04T00:39:51.049Z,23.89
2018-11-04T00:40:50.931Z,23.86
2018-11-04T00:41:50.952Z,23.84
2018-11-04T00:42:50.963Z,23.80
2018-11-04T00:43:51.997Z,23.86
2018-11-04T00:44:51.001Z,23.84
2018-11-04T00:45:51.016Z,23.96
2018-11-04T00:46:51.042Z,23.98
2018-11-04T00:47:51.711Z,24.02
2018-11-04T00:48:51.065Z,24.02
2018-11-04T00:49:52.090Z,23.95
2018-11-04T00:50:52.889Z,23.95
2018-11-04T00:51:51.172Z,24.05
2018-11-04T00:52:51.127Z,24.05
2018-11-04T00:53:51.240Z,24.00
2018-11-04T00:54:51.158Z,23.96
2018-11-04T00:55:52.188Z,23.98
2018-11-04T00:56:51.208Z,24.08
2018-11-04T00:57:51.223Z,23.99
2018-11-04T00:58:51.230Z,23.99
2018-11-04T00:59:51.250Z,24.07
2018-11-04T01:00:51.322Z,24.14
2018-11-04T01:01:52.290Z,24.00
2018-11-04T01:02:51.301Z,23.96
2018-11-04T01:03:51.316Z,23.93
2018-11-04T01:04:51.329Z,23.71
2018-11-04T01:05:51.354Z,23.70
2018-11-04T01:06:51.372Z,23.53
2018-11-04T01:07:52.396Z,23.55
2018-11-04T01:08:51.408Z,23.73
2018-11-04T01:09:51.414Z,23.73
2018-11-04T01:10:51.426Z,23.95
2018-11-04T01:11:51.564Z,23.98
2018-11-04T01:12:51.469Z,23.92
2018-11-04T01:13:52.497Z,23.95
2018-11-04T01:14:51.489Z,23.98
2018-11-04T01:15:51.523Z,24.02
2018-11-04T01:16:52.520Z,23.98
2018-11-04T01:17:51.556Z,23.99
2018-11-04T01:18:51.608Z,24.14
2018-11-04T01:19:52.596Z,23.95
2018-11-04T01:20:51.591Z,24.10
2018-11-04T01:21:51.620Z,24.17
2018-11-04T01:22:51.637Z,24.14
2018-11-04T01:23:51.653Z,24.17
2018-11-04T01:24:51.662Z,24.15
2018-11-04T01:25:52.699Z,24.08
2018-11-04T01:26:51.703Z,24.08
2018-11-04T01:27:51.713Z,24.10
2018-11-04T01:28:51.726Z,24.14
2018-11-04T01:29:51.749Z,24.17
2018-11-04T01:30:51.777Z,24.15
2018-11-04T01:31:52.786Z,24.10
2018-11-04T01:32:52.112Z,24.14
2018-11-04T01:33:51.821Z,24.17
2018-11-04T01:34:51.879Z,24.17
2018-11-04T01:35:51.840Z,24.21
2018-11-04T01:36:51.862Z,24.26
2018-11-04T01:37:52.908Z,24.25
2018-11-04T01:38:51.893Z,24.29
2018-11-04T01:39:51.908Z,24.28
2018-11-04T01:40:51.959Z,24.29
2018-11-04T01:41:51.943Z,24.44
2018-11-04T01:42:51.957Z,24.40
2018-11-04T01:43:52.995Z,24.44
2018-11-04T01:44:51.990Z,24.47
2018-11-04T01:45:52.011Z,24.54
2018-11-04T01:46:52.028Z,24.43
2018-11-04T01:47:52.041Z,24.54
2018-11-04T01:48:52.091Z,24.45
2018-11-04T01:49:53.089Z,24.43
2018-11-04T01:50:52.103Z,24.50
2018-11-04T01:51:52.128Z,24.47
2018-11-04T01:52:52.129Z,24.51
2018-11-04T01:53:52.197Z,24.47
2018-11-04T01:54:52.162Z,24.43
2018-11-04T01:55:53.201Z,24.44
2018-11-04T01:56:52.194Z,24.44
2018-11-04T01:57:52.217Z,24.44
2018-11-04T01:58:52.228Z,24.48
2018-11-04T01:59:52.256Z,24.52
2018-11-04T02:00:52.272Z,24.55
2018-11-04T02:01:53.295Z,24.57
2018-11-04T02:02:52.297Z,24.55
2018-11-04T02:03:52.323Z,24.51
2018-11-04T02:04:52.349Z,24.63
2018-11-04T02:05:52.351Z,24.63
2018-11-04T02:06:52.366Z,24.63
2018-11-04T02:07:53.415Z,24.73
2018-11-04T02:08:52.399Z,24.77
2018-11-04T02:09:52.426Z,24.74
2018-11-04T02:10:52.450Z,24.81
2018-11-04T02:11:52.484Z,24.76
2018-11-04T02:12:52.471Z,24.88
2018-11-04T02:13:53.501Z,24.82
2018-11-04T02:14:52.507Z,24.86
2018-11-04T02:15:52.529Z,24.85
2018-11-04T02:16:52.544Z,24.93
2018-11-04T02:17:52.559Z,24.96
2018-11-04T02:18:52.571Z,25.04
2018-11-04T02:19:53.602Z,25.00
2018-11-04T02:20:52.607Z,25.10
2018-11-04T02:21:52.625Z,25.14
2018-11-04T02:22:52.642Z,25.14
2018-11-04T02:23:52.664Z,25.28
2018-11-04T02:24:52.686Z,25.25
2018-11-04T02:25:53.705Z,25.25
2018-11-04T02:26:52.712Z,25.30
2018-11-04T02:27:52.746Z,25.25
2018-11-04T02:28:52.754Z,25.20
2018-11-04T02:29:52.781Z,25.13
2018-11-04T02:30:52.780Z,25.14
2018-11-04T02:31:53.802Z,25.25
2018-11-04T02:32:52.809Z,25.29
2018-11-04T02:33:52.839Z,25.32
2018-11-04T02:34:52.849Z,25.32
2018-11-04T02:35:52.864Z,25.43
2018-11-04T02:36:52.886Z,25.44
2018-11-04T02:37:53.915Z,25.43
2018-11-04T02:38:52.927Z,25.51
2018-11-04T02:39:52.932Z,25.59
2018-11-04T02:40:52.967Z,25.60
2018-11-04T02:41:52.984Z,25.47
2018-11-04T02:42:52.994Z,25.59
2018-11-04T02:43:54.024Z,25.60
2018-11-04T02:44:53.017Z,25.62
2018-11-04T02:45:53.040Z,25.63
2018-11-04T02:46:53.074Z,25.67
2018-11-04T02:47:53.085Z,25.70
2018-11-04T02:48:53.107Z,25.66
2018-11-04T02:49:54.129Z,25.84
2018-11-04T02:50:53.127Z,25.74
2018-11-04T02:51:54.068Z,25.82
2018-11-04T02:52:53.230Z,25.85
2018-11-04T02:53:53.179Z,25.95
2018-11-04T02:54:53.200Z,25.90
2018-11-04T02:55:54.249Z,25.96
2018-11-04T02:56:53.250Z,25.87
2018-11-04T02:57:53.256Z,25.93
2018-11-04T02:58:54.070Z,25.99
2018-11-04T02:59:53.290Z,25.80
2018-11-04T03:00:53.316Z,25.81
2018-11-04T03:01:54.382Z,25.81
2018-11-04T03:02:53.352Z,25.88
2018-11-04T03:03:53.357Z,25.97
2018-11-04T03:04:53.374Z,26.06
2018-11-04T03:05:53.392Z,26.02
2018-11-04T03:06:53.412Z,26.16
2018-11-04T03:07:54.445Z,26.12
2018-11-04T03:08:53.451Z,26.20
2018-11-04T03:09:53.463Z,26.26
2018-11-04T03:10:53.497Z,26.34
2018-11-04T03:11:53.498Z,26.38
2018-11-04T03:12:53.518Z,26.31
2018-11-04T03:13:54.546Z,26.26
2018-11-04T03:14:53.552Z,26.31
2018-11-04T03:15:53.570Z,26.30
2018-11-04T03:16:53.588Z,26.26
2018-11-04T03:17:53.607Z,26.26
2018-11-04T03:18:53.623Z,26.31
2018-11-04T03:19:54.653Z,26.38
2018-11-04T03:20:53.659Z,26.45
2018-11-04T03:21:53.676Z,26.48
2018-11-04T03:22:53.696Z,26.53
2018-11-04T03:23:53.713Z,26.60
2018-11-04T03:24:53.783Z,26.65
2018-11-04T03:25:54.762Z,26.68
2018-11-04T03:26:53.766Z,26.68
2018-11-04T03:27:53.784Z,26.63
2018-11-04T03:28:53.804Z,26.63
2018-11-04T03:29:53.822Z,26.62
2018-11-04T03:30:53.838Z,26.74
2018-11-04T03:31:54.871Z,26.77
2018-11-04T03:32:53.875Z,26.92
2018-11-04T03:33:53.896Z,26.82
2018-11-04T03:34:53.959Z,26.93
2018-11-04T03:35:53.930Z,26.93
2018-11-04T03:36:53.952Z,26.99
2018-11-04T03:37:54.983Z,27.04
2018-11-04T03:38:53.987Z,26.96
2018-11-04T03:39:54.003Z,26.97
2018-11-04T03:40:54.023Z,26.95
2018-11-04T03:41:54.043Z,27.11
2018-11-04T03:42:54.068Z,27.09
2018-11-04T03:43:55.088Z,27.09
2018-11-04T03:44:54.099Z,26.97
2018-11-04T03:45:54.114Z,27.09
2018-11-04T03:46:54.133Z,27.04
2018-11-04T03:47:54.156Z,27.09
2018-11-04T03:48:54.171Z,27.07
2018-11-04T03:49:55.201Z,27.11
2018-11-04T03:50:54.206Z,27.09
2018-11-04T03:51:54.224Z,27.12
2018-11-04T03:52:54.245Z,27.22
2018-11-04T03:53:54.262Z,27.18
2018-11-04T03:54:54.280Z,27.22
2018-11-04T03:55:55.315Z,27.17
2018-11-04T03:56:54.317Z,27.23
2018-11-04T03:57:54.339Z,27.27
2018-11-04T03:58:54.421Z,27.22
2018-11-04T03:59:54.378Z,27.19
2018-11-04T04:00:54.401Z,27.24
2018-11-04T04:01:55.424Z,27.24
2018-11-04T04:02:54.431Z,27.27
2018-11-04T04:03:55.105Z,27.26
2018-11-04T04:04:54.469Z,27.22
2018-11-04T04:05:54.488Z,27.18
2018-11-04T04:06:54.506Z,27.22
2018-11-04T04:07:55.539Z,27.19
2018-11-04T04:08:54.542Z,27.22
2018-11-04T04:09:54.566Z,27.24
2018-11-04T04:10:54.581Z,27.23
2018-11-04T04:11:55.110Z,27.23
2018-11-04T04:12:54.617Z,27.18
2018-11-04T04:13:55.649Z,27.15
2018-11-04T04:14:54.659Z,27.24
2018-11-04T04:15:54.674Z,27.23
2018-11-04T04:16:54.690Z,27.32
2018-11-04T04:17:54.718Z,27.32
2018-11-04T04:18:54.731Z,27.32
2018-11-04T04:19:55.782Z,27.37
2018-11-04T04:20:54.769Z,27.44
2018-11-04T04:21:54.789Z,27.30
2018-11-04T04:22:54.807Z,27.36
2018-11-04T04:23:54.824Z,27.44
2018-11-04T04:24:54.851Z,27.39
2018-11-04T04:25:55.871Z,27.44
2018-11-04T04:26:54.878Z,27.42
2018-11-04T04:27:54.897Z,27.52
2018-11-04T04:28:54.915Z,27.46
2018-11-04T04:29:54.976Z,27.45
2018-11-04T04:30:54.956Z,27.58
2018-11-04T04:31:55.985Z,27.49
2018-11-04T04:32:54.994Z,27.51
2018-11-04T04:33:55.012Z,27.58
2018-11-04T04:34:55.029Z,27.55
2018-11-04T04:35:55.048Z,27.58
2018-11-04T04:36:55.069Z,27.58
2018-11-04T04:37:56.118Z,27.64
2018-11-04T04:38:55.106Z,27.45
2018-11-04T04:39:55.121Z,27.61
2018-11-04T04:40:55.144Z,27.51
2018-11-04T04:41:55.159Z,27.64
2018-11-04T04:42:55.180Z,27.60
2018-11-04T04:43:57.127Z,27.62
2018-11-04T04:44:55.215Z,27.64
2018-11-04T04:45:55.235Z,27.68
2018-11-04T04:46:55.255Z,27.74
2018-11-04T04:47:55.271Z,27.64
2018-11-04T04:48:55.296Z,27.77
2018-11-04T04:49:56.323Z,27.72
2018-11-04T04:50:55.330Z,27.62
2018-11-04T04:51:55.349Z,27.54
2018-11-04T04:52:55.366Z,27.61
2018-11-04T04:53:55.384Z,27.70
2018-11-04T04:54:55.405Z,27.64
2018-11-04T04:55:56.433Z,27.62
2018-11-04T04:56:55.486Z,27.71
2018-11-04T04:57:55.466Z,27.75
2018-11-04T04:58:55.482Z,27.75
2018-11-04T04:59:55.528Z,27.80
2018-11-04T05:00:55.519Z,27.79
2018-11-04T05:01:56.546Z,27.82
2018-11-04T05:02:55.555Z,27.86
2018-11-04T05:03:55.575Z,27.89
2018-11-04T05:04:55.597Z,27.92
2018-11-04T05:05:55.615Z,27.97
2018-11-04T05:06:55.633Z,28.04
2018-11-04T05:07:56.662Z,27.95
2018-11-04T05:08:55.680Z,27.97
2018-11-04T05:09:55.688Z,27.95
2018-11-04T05:10:55.708Z,27.90
2018-11-04T05:11:55.729Z,27.93
2018-11-04T05:12:55.745Z,28.04
2018-11-04T05:13:56.778Z,27.95
2018-11-04T05:14:55.783Z,27.97
2018-11-04T05:15:55.807Z,27.93
2018-11-04T05:16:55.824Z,27.92
2018-11-04T05:17:55.840Z,27.89
2018-11-04T05:18:55.858Z,27.92
2018-11-04T05:19:56.888Z,27.97
2018-11-04T05:20:55.900Z,27.92
2018-11-04T05:21:55.980Z,27.99
2018-11-04T05:22:55.954Z,28.01
2018-11-04T05:23:55.956Z,27.98
2018-11-04T05:24:55.975Z,28.11
2018-11-04T05:25:57.007Z,28.09
2018-11-04T05:26:56.017Z,28.07
2018-11-04T05:27:56.028Z,28.12
2018-11-04T05:28:56.049Z,28.12
2018-11-04T05:29:56.070Z,28.07
2018-11-04T05:30:56.091Z,28.12
2018-11-04T05:31:57.118Z,28.08
2018-11-04T05:32:56.127Z,28.16
2018-11-04T05:33:56.147Z,28.23
2018-11-04T05:34:56.169Z,28.32
2018-11-04T05:35:56.187Z,28.36
2018-11-04T05:36:56.205Z,28.39
2018-11-04T05:37:57.245Z,28.41
2018-11-04T05:38:56.243Z,28.44
2018-11-04T05:39:56.259Z,28.42
2018-11-04T05:40:56.284Z,28.41
2018-11-04T05:41:56.300Z,28.42
2018-11-04T05:42:56.321Z,28.42
2018-11-04T05:43:57.345Z,28.49
2018-11-04T05:44:56.358Z,28.57
2018-11-04T05:45:56.380Z,28.51
2018-11-04T05:46:56.396Z,28.61
2018-11-04T05:47:56.417Z,28.61
2018-11-04T05:48:56.435Z,28.63
2018-11-04T05:49:57.473Z,28.60
2018-11-04T05:50:56.482Z,28.61
2018-11-04T05:51:56.505Z,28.60
2018-11-04T05:52:56.511Z,28.58
2018-11-04T05:53:56.534Z,28.60
2018-11-04T05:54:56.553Z,28.66
2018-11-04T05:55:57.588Z,28.64
2018-11-04T05:56:56.592Z,28.67
2018-11-04T05:57:56.610Z,28.64
2018-11-04T05:58:56.632Z,28.75
2018-11-04T05:59:56.649Z,28.75
2018-11-04T06:00:56.672Z,28.75
2018-11-04T06:01:57.699Z,28.78
2018-11-04T06:02:56.707Z,28.78
2018-11-04T06:03:56.740Z,28.85
2018-11-04T06:04:56.751Z,28.86
2018-11-04T06:05:56.768Z,28.86
2018-11-04T06:06:56.785Z,28.91
2018-11-04T06:07:57.818Z,28.90
2018-11-04T06:08:56.826Z,28.90
2018-11-04T06:09:56.846Z,28.90
2018-11-04T06:10:56.864Z,28.85
2018-11-04T06:11:56.886Z,28.91
2018-11-04T06:12:56.906Z,28.93
2018-11-04T06:13:57.935Z,28.93
2018-11-04T06:14:56.945Z,28.98
2018-11-04T06:15:56.960Z,29.04
2018-11-04T06:16:56.981Z,29.10
2018-11-04T06:17:57.003Z,29.13
2018-11-04T06:18:57.021Z,29.13
2018-11-04T06:19:58.050Z,29.25
2018-11-04T06:20:57.870Z,29.13
2018-11-04T06:21:57.159Z,29.21
2018-11-04T06:22:57.105Z,29.20
2018-11-04T06:23:57.119Z,29.10
2018-11-04T06:24:57.142Z,29.17
2018-11-04T06:25:58.172Z,29.19
2018-11-04T06:26:57.180Z,29.31
2018-11-04T06:27:57.198Z,29.25
2018-11-04T06:28:57.216Z,29.35
2018-11-04T06:29:57.237Z,29.36
2018-11-04T06:30:57.261Z,29.42
2018-11-04T06:31:58.290Z,29.42
2018-11-04T06:32:57.299Z,29.47
2018-11-04T06:33:57.323Z,29.47
2018-11-04T06:34:57.339Z,29.53
2018-11-04T06:35:57.360Z,29.48
2018-11-04T06:36:57.377Z,29.48
2018-11-04T06:37:58.417Z,29.50
2018-11-04T06:38:57.418Z,29.54
2018-11-04T06:39:57.440Z,29.53
